Terminal Aerodrome Forecast
Issued by NWS Kansas City/Pleasant Hill, MO

Home | Current Version | Previous Version | Text Only | Print | Product List | Glossary On
Versions: 1 2 3 4 5 6 7 8 9 10 11 12 13 14 15 16 17
000
FTUS43 KEAX 241700
TAFMCI
TAF
KMCI 241730Z 2418/2518 30015G25KT P6SM OVC035
     FM250000 31011KT P6SM FEW040 SCT180
     FM251400 28010KT P6SM SCT080=

USA.gov is the U.S. government's official web portal to all federal, state and local government web resources and services.